Main page
Satellite images 10-day forecastsClimateMarine weather Cyclones Lightning AirportsFAQ Newsletter About
Weather : Europe Africa North America South America Asia Australia-Oceania Others
Languages Contact

Gloucester, England

Gloucestershire Airport Staverton

latitude: 51-54N, longitude: 002-10W, elevation: 29 m


METAR: EGBJ 261850Z 28003KT 9999 FEW030 04/02 Q1028
TAF: EGBJ 261657Z 2618/2620 30006KT 9999 SCT030

Time: 22:24 (22:24 UTC)

Current weather observation

The report was made 3 hours and 34 minutes ago, at 18:50 UTC
Wind 3 kt from the West
Temperature 4°C
Humidity 87%
Pressure 1028 hPa
Visibility 10 km or more
Few clouds at a height of 3000 ft

Change units

Forecast

The report was made 5 hours and 27 minutes ago, at 16:57 UTC
Forecast valid from 26 at 18 UTC to 26 at 20 UTC
Wind 6 kt from the West/Northwest
Visibility 10 km or more
Scattered clouds at a height of 3000 ft
The information on this site is subject to a disclaimer
Weather : Europe Africa North America South America Asia Australia-Oceania Others
Satellite images 10-day forecastsClimateMarine weather Cyclones Lightning AirportsFAQ Languages Contact Newsletter About